sensor_id;sensor_type;location;lat;lon;timestamp;P1;durP1;ratioP1;P2;durP2;ratioP2
79124;SDS011;68527;39.470;-0.376;2023-03-21T00:00:45;7.00;;;2.80;;
79124;SDS011;68527;39.470;-0.376;2023-03-21T00:03:12;5.80;;;2.30;;
79124;SDS011;68527;39.470;-0.376;2023-03-21T00:05:39;5.80;;;2.60;;
79124;SDS011;68527;39.470;-0.376;2023-03-21T00:08:05;5.10;;;2.20;;
79124;SDS011;68527;39.470;-0.376;2023-03-21T00:10:31;4.20;;;2.50;;
79124;SDS011;68527;39.470;-0.376;2023-03-21T00:15:23;5.40;;;2.50;;
79124;SDS011;68527;39.470;-0.376;2023-03-21T00:17:50;5.60;;;2.40;;
79124;SDS011;68527;39.470;-0.376;2023-03-21T00:22:47;6.70;;;2.20;;
79124;SDS011;68527;39.470;-0.376;2023-03-21T00:25:13;5.40;;;2.60;;
79124;SDS011;68527;39.470;-0.376;2023-03-21T00:27:39;4.90;;;2.70;;
79124;SDS011;68527;39.470;-0.376;2023-03-21T00:30:05;5.30;;;2.20;;
79124;SDS011;68527;39.470;-0.376;2023-03-21T00:32:31;3.90;;;2.20;;
79124;SDS011;68527;39.470;-0.376;2023-03-21T00:37:22;5.40;;;2.70;;
79124;SDS011;68527;39.470;-0.376;2023-03-21T00:39:48;5.30;;;2.50;;
79124;SDS011;68527;39.470;-0.376;2023-03-21T00:42:17;5.80;;;2.30;;
79124;SDS011;68527;39.470;-0.376;2023-03-21T00:44:43;4.30;;;2.80;;
79124;SDS011;68527;39.470;-0.376;2023-03-21T00:47:11;4.60;;;2.00;;
79124;SDS011;68527;39.470;-0.376;2023-03-21T00:49:37;5.40;;;2.30;;
79124;SDS011;68527;39.470;-0.376;2023-03-21T00:52:04;6.50;;;2.80;;
79124;SDS011;68527;39.470;-0.376;2023-03-21T00:54:33;4.70;;;2.10;;
79124;SDS011;68527;39.470;-0.376;2023-03-21T00:57:01;4.40;;;2.20;;
79124;SDS011;68527;39.470;-0.376;2023-03-21T00:59:27;3.90;;;2.10;;
79124;SDS011;68527;39.470;-0.376;2023-03-21T01:01:53;4.70;;;2.10;;
79124;SDS011;68527;39.470;-0.376;2023-03-21T01:04:20;4.70;;;2.70;;
79124;SDS011;68527;39.470;-0.376;2023-03-21T01:06:51;4.80;;;2.60;;
79124;SDS011;68527;39.470;-0.376;2023-03-21T01:09:18;3.50;;;2.20;;
79124;SDS011;68527;39.470;-0.376;2023-03-21T01:11:45;3.40;;;2.00;;
79124;SDS011;68527;39.470;-0.376;2023-03-21T01:14:12;4.80;;;2.60;;
79124;SDS011;68527;39.470;-0.376;2023-03-21T01:16:38;4.20;;;2.10;;
79124;SDS011;68527;39.470;-0.376;2023-03-21T01:21:30;4.50;;;2.20;;
79124;SDS011;68527;39.470;-0.376;2023-03-21T01:23:56;4.10;;;2.00;;
79124;SDS011;68527;39.470;-0.376;2023-03-21T01:28:47;4.40;;;1.90;;
79124;SDS011;68527;39.470;-0.376;2023-03-21T01:31:13;3.90;;;2.00;;
79124;SDS011;68527;39.470;-0.376;2023-03-21T01:33:40;3.80;;;2.10;;
79124;SDS011;68527;39.470;-0.376;2023-03-21T01:36:06;4.60;;;2.30;;
79124;SDS011;68527;39.470;-0.376;2023-03-21T01:38:33;5.50;;;2.40;;
79124;SDS011;68527;39.470;-0.376;2023-03-21T01:40:59;4.70;;;2.30;;
79124;SDS011;68527;39.470;-0.376;2023-03-21T01:43:30;4.30;;;2.20;;
79124;SDS011;68527;39.470;-0.376;2023-03-21T01:48:41;4.80;;;2.50;;
79124;SDS011;68527;39.470;-0.376;2023-03-21T01:51:10;3.30;;;1.70;;
79124;SDS011;68527;39.470;-0.376;2023-03-21T01:53:37;4.20;;;2.50;;
79124;SDS011;68527;39.470;-0.376;2023-03-21T01:56:15;3.30;;;2.20;;
79124;SDS011;68527;39.470;-0.376;2023-03-21T01:58:44;3.70;;;2.10;;
79124;SDS011;68527;39.470;-0.376;2023-03-21T02:01:11;3.70;;;2.30;;
79124;SDS011;68527;39.470;-0.376;2023-03-21T02:06:14;4.10;;;2.10;;
79124;SDS011;68527;39.470;-0.376;2023-03-21T02:08:44;5.50;;;2.20;;
79124;SDS011;68527;39.470;-0.376;2023-03-21T02:11:10;3.50;;;2.00;;
79124;SDS011;68527;39.470;-0.376;2023-03-21T02:13:36;2.80;;;2.00;;
79124;SDS011;68527;39.470;-0.376;2023-03-21T02:16:20;4.80;;;2.30;;
79124;SDS011;68527;39.470;-0.376;2023-03-21T02:27:12;3.80;;;2.00;;
79124;SDS011;68527;39.470;-0.376;2023-03-21T02:38:11;3.70;;;1.80;;
79124;SDS011;68527;39.470;-0.376;2023-03-21T02:40:42;3.90;;;2.00;;
79124;SDS011;68527;39.470;-0.376;2023-03-21T02:43:12;4.10;;;2.10;;
79124;SDS011;68527;39.470;-0.376;2023-03-21T02:45:50;3.30;;;1.70;;
79124;SDS011;68527;39.470;-0.376;2023-03-21T02:50:55;3.50;;;1.70;;
79124;SDS011;68527;39.470;-0.376;2023-03-21T02:53:24;4.20;;;1.90;;
79124;SDS011;68527;39.470;-0.376;2023-03-21T02:55:52;4.80;;;2.00;;
79124;SDS011;68527;39.470;-0.376;2023-03-21T02:58:20;3.40;;;1.70;;
79124;SDS011;68527;39.470;-0.376;2023-03-21T03:00:47;6.10;;;1.90;;
79124;SDS011;68527;39.470;-0.376;2023-03-21T03:03:13;4.40;;;2.10;;
79124;SDS011;68527;39.470;-0.376;2023-03-21T03:05:44;3.00;;;1.70;;
79124;SDS011;68527;39.470;-0.376;2023-03-21T03:13:40;5.50;;;2.30;;
79124;SDS011;68527;39.470;-0.376;2023-03-21T03:18:57;3.50;;;1.90;;
79124;SDS011;68527;39.470;-0.376;2023-03-21T03:21:28;3.60;;;1.80;;
79124;SDS011;68527;39.470;-0.376;2023-03-21T03:24:09;4.00;;;2.10;;
79124;SDS011;68527;39.470;-0.376;2023-03-21T03:27:00;3.00;;;2.20;;
79124;SDS011;68527;39.470;-0.376;2023-03-21T03:29:29;4.30;;;2.10;;
79124;SDS011;68527;39.470;-0.376;2023-03-21T03:32:00;3.00;;;1.50;;
79124;SDS011;68527;39.470;-0.376;2023-03-21T03:34:38;5.10;;;2.20;;
79124;SDS011;68527;39.470;-0.376;2023-03-21T03:37:07;4.20;;;2.10;;
79124;SDS011;68527;39.470;-0.376;2023-03-21T03:39:39;3.20;;;1.80;;
79124;SDS011;68527;39.470;-0.376;2023-03-21T03:42:45;4.30;;;1.90;;
79124;SDS011;68527;39.470;-0.376;2023-03-21T03:45:11;4.50;;;2.10;;
79124;SDS011;68527;39.470;-0.376;2023-03-21T03:47:41;3.50;;;1.80;;
79124;SDS011;68527;39.470;-0.376;2023-03-21T03:55:37;2.90;;;1.90;;
79124;SDS011;68527;39.470;-0.376;2023-03-21T03:58:02;3.10;;;1.80;;
79124;SDS011;68527;39.470;-0.376;2023-03-21T04:00:30;3.70;;;2.10;;
79124;SDS011;68527;39.470;-0.376;2023-03-21T04:02:57;3.10;;;1.70;;
79124;SDS011;68527;39.470;-0.376;2023-03-21T04:07:49;3.10;;;1.90;;
79124;SDS011;68527;39.470;-0.376;2023-03-21T04:10:15;3.30;;;1.90;;
79124;SDS011;68527;39.470;-0.376;2023-03-21T04:12:41;3.70;;;2.00;;
79124;SDS011;68527;39.470;-0.376;2023-03-21T04:15:07;3.00;;;1.90;;
79124;SDS011;68527;39.470;-0.376;2023-03-21T04:17:34;2.40;;;1.60;;
79124;SDS011;68527;39.470;-0.376;2023-03-21T04:22:25;4.30;;;1.90;;
79124;SDS011;68527;39.470;-0.376;2023-03-21T04:24:51;4.60;;;2.00;;
79124;SDS011;68527;39.470;-0.376;2023-03-21T04:27:17;3.50;;;1.80;;
79124;SDS011;68527;39.470;-0.376;2023-03-21T04:29:43;5.20;;;2.00;;
79124;SDS011;68527;39.470;-0.376;2023-03-21T04:32:09;4.30;;;2.30;;
79124;SDS011;68527;39.470;-0.376;2023-03-21T04:34:43;4.60;;;2.20;;
79124;SDS011;68527;39.470;-0.376;2023-03-21T04:37:16;3.20;;;2.20;;
79124;SDS011;68527;39.470;-0.376;2023-03-21T04:39:43;3.30;;;2.10;;
79124;SDS011;68527;39.470;-0.376;2023-03-21T04:42:10;5.50;;;2.30;;
79124;SDS011;68527;39.470;-0.376;2023-03-21T04:44:38;3.50;;;2.10;;
79124;SDS011;68527;39.470;-0.376;2023-03-21T04:47:05;6.50;;;3.20;;
79124;SDS011;68527;39.470;-0.376;2023-03-21T04:49:31;3.30;;;2.20;;
79124;SDS011;68527;39.470;-0.376;2023-03-21T04:51:56;4.00;;;2.00;;
79124;SDS011;68527;39.470;-0.376;2023-03-21T04:54:22;3.80;;;2.00;;
79124;SDS011;68527;39.470;-0.376;2023-03-21T04:56:48;5.00;;;2.30;;
79124;SDS011;68527;39.470;-0.376;2023-03-21T04:59:16;4.20;;;2.40;;
79124;SDS011;68527;39.470;-0.376;2023-03-21T05:01:42;4.60;;;2.40;;
79124;SDS011;68527;39.470;-0.376;2023-03-21T05:04:08;4.00;;;2.30;;
79124;SDS011;68527;39.470;-0.376;2023-03-21T05:06:35;3.40;;;2.30;;
79124;SDS011;68527;39.470;-0.376;2023-03-21T05:09:01;4.70;;;2.10;;
79124;SDS011;68527;39.470;-0.376;2023-03-21T05:11:32;4.60;;;2.20;;
79124;SDS011;68527;39.470;-0.376;2023-03-21T05:14:02;3.90;;;2.20;;
79124;SDS011;68527;39.470;-0.376;2023-03-21T05:16:28;3.90;;;2.40;;
79124;SDS011;68527;39.470;-0.376;2023-03-21T05:18:55;4.50;;;2.50;;
79124;SDS011;68527;39.470;-0.376;2023-03-21T05:21:23;3.80;;;2.10;;
79124;SDS011;68527;39.470;-0.376;2023-03-21T05:23:53;4.50;;;2.20;;
79124;SDS011;68527;39.470;-0.376;2023-03-21T05:26:20;4.20;;;2.20;;
79124;SDS011;68527;39.470;-0.376;2023-03-21T05:28:47;3.80;;;1.90;;
79124;SDS011;68527;39.470;-0.376;2023-03-21T05:31:16;3.60;;;2.00;;
79124;SDS011;68527;39.470;-0.376;2023-03-21T05:33:43;2.90;;;1.90;;
79124;SDS011;68527;39.470;-0.376;2023-03-21T05:36:09;3.50;;;2.30;;
79124;SDS011;68527;39.470;-0.376;2023-03-21T05:38:35;3.90;;;2.30;;
79124;SDS011;68527;39.470;-0.376;2023-03-21T05:41:01;4.30;;;2.00;;
79124;SDS011;68527;39.470;-0.376;2023-03-21T05:45:52;4.10;;;2.30;;
79124;SDS011;68527;39.470;-0.376;2023-03-21T05:48:18;5.00;;;2.50;;
79124;SDS011;68527;39.470;-0.376;2023-03-21T05:50:43;6.10;;;2.70;;
79124;SDS011;68527;39.470;-0.376;2023-03-21T05:53:10;6.20;;;2.50;;
79124;SDS011;68527;39.470;-0.376;2023-03-21T05:55:36;4.40;;;2.20;;
79124;SDS011;68527;39.470;-0.376;2023-03-21T05:58:02;3.50;;;2.20;;
79124;SDS011;68527;39.470;-0.376;2023-03-21T06:00:28;3.60;;;2.50;;
79124;SDS011;68527;39.470;-0.376;2023-03-21T06:02:54;4.20;;;2.10;;
79124;SDS011;68527;39.470;-0.376;2023-03-21T06:07:45;4.80;;;2.50;;
79124;SDS011;68527;39.470;-0.376;2023-03-21T06:10:11;5.80;;;2.80;;
79124;SDS011;68527;39.470;-0.376;2023-03-21T06:12:36;5.90;;;2.70;;
79124;SDS011;68527;39.470;-0.376;2023-03-21T06:15:03;5.20;;;2.50;;
79124;SDS011;68527;39.470;-0.376;2023-03-21T06:17:29;5.40;;;2.70;;
79124;SDS011;68527;39.470;-0.376;2023-03-21T06:19:56;8.60;;;2.90;;
79124;SDS011;68527;39.470;-0.376;2023-03-21T06:22:22;8.20;;;2.90;;
79124;SDS011;68527;39.470;-0.376;2023-03-21T06:24:48;7.40;;;2.50;;
79124;SDS011;68527;39.470;-0.376;2023-03-21T06:27:13;4.00;;;2.40;;
79124;SDS011;68527;39.470;-0.376;2023-03-21T06:29:39;5.90;;;2.50;;
79124;SDS011;68527;39.470;-0.376;2023-03-21T06:34:31;7.50;;;3.00;;
79124;SDS011;68527;39.470;-0.376;2023-03-21T06:36:57;4.60;;;2.30;;
79124;SDS011;68527;39.470;-0.376;2023-03-21T06:39:23;5.90;;;2.70;;
79124;SDS011;68527;39.470;-0.376;2023-03-21T06:41:48;8.20;;;3.00;;
79124;SDS011;68527;39.470;-0.376;2023-03-21T06:44:14;7.80;;;2.60;;
79124;SDS011;68527;39.470;-0.376;2023-03-21T06:46:40;5.20;;;2.30;;
79124;SDS011;68527;39.470;-0.376;2023-03-21T06:49:05;5.60;;;2.70;;
79124;SDS011;68527;39.470;-0.376;2023-03-21T06:51:31;9.20;;;2.50;;
79124;SDS011;68527;39.470;-0.376;2023-03-21T06:53:57;7.40;;;3.00;;
79124;SDS011;68527;39.470;-0.376;2023-03-21T06:56:22;4.90;;;2.30;;
79124;SDS011;68527;39.470;-0.376;2023-03-21T07:01:14;8.40;;;2.20;;
79124;SDS011;68527;39.470;-0.376;2023-03-21T07:03:40;5.30;;;2.30;;
79124;SDS011;68527;39.470;-0.376;2023-03-21T07:06:06;8.50;;;2.50;;
79124;SDS011;68527;39.470;-0.376;2023-03-21T07:08:36;6.20;;;2.20;;
79124;SDS011;68527;39.470;-0.376;2023-03-21T07:11:02;4.70;;;2.40;;
79124;SDS011;68527;39.470;-0.376;2023-03-21T07:13:28;5.80;;;2.30;;
79124;SDS011;68527;39.470;-0.376;2023-03-21T07:15:54;7.80;;;2.70;;
79124;SDS011;68527;39.470;-0.376;2023-03-21T07:18:20;4.60;;;2.60;;
79124;SDS011;68527;39.470;-0.376;2023-03-21T07:20:46;7.70;;;2.30;;
79124;SDS011;68527;39.470;-0.376;2023-03-21T07:23:18;5.70;;;2.70;;
79124;SDS011;68527;39.470;-0.376;2023-03-21T07:25:46;10.80;;;2.50;;
79124;SDS011;68527;39.470;-0.376;2023-03-21T07:28:12;6.20;;;2.40;;
79124;SDS011;68527;39.470;-0.376;2023-03-21T07:30:38;9.20;;;2.90;;
79124;SDS011;68527;39.470;-0.376;2023-03-21T07:33:04;8.70;;;3.20;;
79124;SDS011;68527;39.470;-0.376;2023-03-21T07:35:31;12.30;;;4.90;;
79124;SDS011;68527;39.470;-0.376;2023-03-21T07:37:57;9.00;;;3.60;;
79124;SDS011;68527;39.470;-0.376;2023-03-21T07:40:22;12.50;;;5.30;;
79124;SDS011;68527;39.470;-0.376;2023-03-21T07:42:48;13.50;;;4.00;;
79124;SDS011;68527;39.470;-0.376;2023-03-21T07:45:15;14.20;;;4.80;;
79124;SDS011;68527;39.470;-0.376;2023-03-21T07:47:45;13.00;;;5.10;;
79124;SDS011;68527;39.470;-0.376;2023-03-21T07:50:11;12.30;;;4.60;;
79124;SDS011;68527;39.470;-0.376;2023-03-21T07:52:37;19.10;;;5.40;;
79124;SDS011;68527;39.470;-0.376;2023-03-21T07:55:03;16.80;;;5.80;;
79124;SDS011;68527;39.470;-0.376;2023-03-21T07:57:29;14.60;;;5.30;;
79124;SDS011;68527;39.470;-0.376;2023-03-21T08:02:20;11.90;;;4.20;;
79124;SDS011;68527;39.470;-0.376;2023-03-21T08:04:46;9.70;;;4.30;;
79124;SDS011;68527;39.470;-0.376;2023-03-21T08:07:11;16.90;;;5.30;;
79124;SDS011;68527;39.470;-0.376;2023-03-21T08:09:37;13.90;;;5.00;;
79124;SDS011;68527;39.470;-0.376;2023-03-21T08:14:29;13.50;;;5.00;;
79124;SDS011;68527;39.470;-0.376;2023-03-21T08:16:55;14.60;;;4.60;;
79124;SDS011;68527;39.470;-0.376;2023-03-21T08:19:21;11.20;;;4.30;;
79124;SDS011;68527;39.470;-0.376;2023-03-21T08:21:47;8.90;;;4.50;;
79124;SDS011;68527;39.470;-0.376;2023-03-21T08:24:14;10.60;;;4.90;;
79124;SDS011;68527;39.470;-0.376;2023-03-21T08:26:40;9.20;;;4.80;;
79124;SDS011;68527;39.470;-0.376;2023-03-21T08:29:06;10.10;;;4.60;;
79124;SDS011;68527;39.470;-0.376;2023-03-21T08:31:32;15.10;;;4.80;;
79124;SDS011;68527;39.470;-0.376;2023-03-21T08:36:23;11.30;;;5.00;;
79124;SDS011;68527;39.470;-0.376;2023-03-21T08:38:49;16.10;;;5.50;;
79124;SDS011;68527;39.470;-0.376;2023-03-21T08:41:20;13.60;;;4.70;;
79124;SDS011;68527;39.470;-0.376;2023-03-21T08:43:49;11.50;;;4.30;;
79124;SDS011;68527;39.470;-0.376;2023-03-21T08:46:14;15.00;;;5.50;;
79124;SDS011;68527;39.470;-0.376;2023-03-21T08:48:40;11.10;;;4.80;;
79124;SDS011;68527;39.470;-0.376;2023-03-21T08:51:06;8.70;;;4.20;;
79124;SDS011;68527;39.470;-0.376;2023-03-21T08:53:32;11.60;;;4.50;;
79124;SDS011;68527;39.470;-0.376;2023-03-21T08:58:23;13.10;;;4.60;;
79124;SDS011;68527;39.470;-0.376;2023-03-21T09:00:49;11.50;;;4.50;;
79124;SDS011;68527;39.470;-0.376;2023-03-21T09:03:16;14.30;;;4.80;;
79124;SDS011;68527;39.470;-0.376;2023-03-21T09:05:41;9.60;;;4.10;;
79124;SDS011;68527;39.470;-0.376;2023-03-21T09:08:09;10.10;;;4.40;;
79124;SDS011;68527;39.470;-0.376;2023-03-21T09:10:37;11.00;;;4.40;;
79124;SDS011;68527;39.470;-0.376;2023-03-21T09:13:02;10.90;;;4.80;;
79124;SDS011;68527;39.470;-0.376;2023-03-21T09:17:54;11.40;;;4.80;;
79124;SDS011;68527;39.470;-0.376;2023-03-21T09:20:22;9.60;;;4.10;;
79124;SDS011;68527;39.470;-0.376;2023-03-21T09:22:55;13.50;;;4.80;;
79124;SDS011;68527;39.470;-0.376;2023-03-21T09:25:21;11.60;;;4.60;;
79124;SDS011;68527;39.470;-0.376;2023-03-21T09:27:49;12.20;;;4.60;;
79124;SDS011;68527;39.470;-0.376;2023-03-21T09:30:16;9.50;;;4.70;;
79124;SDS011;68527;39.470;-0.376;2023-03-21T09:32:43;10.90;;;4.70;;
79124;SDS011;68527;39.470;-0.376;2023-03-21T09:35:12;10.70;;;4.90;;
79124;SDS011;68527;39.470;-0.376;2023-03-21T09:37:40;11.30;;;4.40;;
79124;SDS011;68527;39.470;-0.376;2023-03-21T09:40:53;10.40;;;4.80;;
79124;SDS011;68527;39.470;-0.376;2023-03-21T09:45:53;10.30;;;4.80;;
79124;SDS011;68527;39.470;-0.376;2023-03-21T09:48:52;11.70;;;4.50;;
79124;SDS011;68527;39.470;-0.376;2023-03-21T09:51:48;8.80;;;4.40;;
79124;SDS011;68527;39.470;-0.376;2023-03-21T09:54:25;7.20;;;4.30;;
79124;SDS011;68527;39.470;-0.376;2023-03-21T09:56:54;13.30;;;4.30;;
79124;SDS011;68527;39.470;-0.376;2023-03-21T09:59:35;8.60;;;4.10;;
79124;SDS011;68527;39.470;-0.376;2023-03-21T10:05:00;7.00;;;3.70;;
79124;SDS011;68527;39.470;-0.376;2023-03-21T10:07:35;7.60;;;3.90;;
79124;SDS011;68527;39.470;-0.376;2023-03-21T10:10:06;10.90;;;4.30;;
79124;SDS011;68527;39.470;-0.376;2023-03-21T10:12:37;6.10;;;3.50;;
79124;SDS011;68527;39.470;-0.376;2023-03-21T10:17:36;8.20;;;3.70;;
79124;SDS011;68527;39.470;-0.376;2023-03-21T10:22:55;7.00;;;3.60;;
79124;SDS011;68527;39.470;-0.376;2023-03-21T10:25:33;7.60;;;4.10;;
79124;SDS011;68527;39.470;-0.376;2023-03-21T10:30:37;9.20;;;3.80;;
79124;SDS011;68527;39.470;-0.376;2023-03-21T10:33:07;8.30;;;3.70;;
79124;SDS011;68527;39.470;-0.376;2023-03-21T10:35:37;7.80;;;3.80;;
79124;SDS011;68527;39.470;-0.376;2023-03-21T10:38:04;11.00;;;4.10;;
79124;SDS011;68527;39.470;-0.376;2023-03-21T10:40:30;7.10;;;3.50;;
79124;SDS011;68527;39.470;-0.376;2023-03-21T10:42:58;11.00;;;4.50;;
79124;SDS011;68527;39.470;-0.376;2023-03-21T10:45:40;7.50;;;3.50;;
79124;SDS011;68527;39.470;-0.376;2023-03-21T10:48:06;9.30;;;4.30;;
79124;SDS011;68527;39.470;-0.376;2023-03-21T10:50:32;7.70;;;3.40;;
79124;SDS011;68527;39.470;-0.376;2023-03-21T10:52:57;5.40;;;3.10;;
79124;SDS011;68527;39.470;-0.376;2023-03-21T10:55:25;8.60;;;3.20;;
79124;SDS011;68527;39.470;-0.376;2023-03-21T10:58:03;6.70;;;3.60;;
79124;SDS011;68527;39.470;-0.376;2023-03-21T11:00:38;8.40;;;3.70;;
79124;SDS011;68527;39.470;-0.376;2023-03-21T11:03:05;7.30;;;3.50;;
79124;SDS011;68527;39.470;-0.376;2023-03-21T11:08:03;7.00;;;3.00;;
79124;SDS011;68527;39.470;-0.376;2023-03-21T11:10:34;6.90;;;3.30;;
79124;SDS011;68527;39.470;-0.376;2023-03-21T11:13:06;6.20;;;3.50;;
79124;SDS011;68527;39.470;-0.376;2023-03-21T11:15:45;6.90;;;3.50;;
79124;SDS011;68527;39.470;-0.376;2023-03-21T11:18:18;8.60;;;3.10;;
79124;SDS011;68527;39.470;-0.376;2023-03-21T11:21:04;6.00;;;3.60;;
79124;SDS011;68527;39.470;-0.376;2023-03-21T11:23:32;7.50;;;3.60;;
79124;SDS011;68527;39.470;-0.376;2023-03-21T11:25:59;6.50;;;3.40;;
79124;SDS011;68527;39.470;-0.376;2023-03-21T11:28:31;5.10;;;3.30;;
79124;SDS011;68527;39.470;-0.376;2023-03-21T11:31:00;6.10;;;3.40;;
79124;SDS011;68527;39.470;-0.376;2023-03-21T11:33:30;6.90;;;3.40;;
79124;SDS011;68527;39.470;-0.376;2023-03-21T11:36:42;8.50;;;3.50;;
79124;SDS011;68527;39.470;-0.376;2023-03-21T11:38:52;5.40;;;3.30;;
79124;SDS011;68527;39.470;-0.376;2023-03-21T11:43:55;8.00;;;3.20;;
79124;SDS011;68527;39.470;-0.376;2023-03-21T11:46:23;5.90;;;3.20;;
79124;SDS011;68527;39.470;-0.376;2023-03-21T11:48:50;5.90;;;3.30;;
79124;SDS011;68527;39.470;-0.376;2023-03-21T12:00:06;5.70;;;2.70;;
79124;SDS011;68527;39.470;-0.376;2023-03-21T12:06:09;5.80;;;3.30;;
79124;SDS011;68527;39.470;-0.376;2023-03-21T12:14:11;8.10;;;3.00;;
79124;SDS011;68527;39.470;-0.376;2023-03-21T12:16:50;4.40;;;3.20;;
79124;SDS011;68527;39.470;-0.376;2023-03-21T12:22:22;6.50;;;3.50;;
79124;SDS011;68527;39.470;-0.376;2023-03-21T12:24:53;5.50;;;3.00;;
79124;SDS011;68527;39.470;-0.376;2023-03-21T12:27:41;5.90;;;2.90;;
79124;SDS011;68527;39.470;-0.376;2023-03-21T12:38:40;4.40;;;2.80;;
79124;SDS011;68527;39.470;-0.376;2023-03-21T12:46:23;6.20;;;2.50;;
79124;SDS011;68527;39.470;-0.376;2023-03-21T12:49:30;5.30;;;2.90;;
79124;SDS011;68527;39.470;-0.376;2023-03-21T12:52:42;6.20;;;2.70;;
79124;SDS011;68527;39.470;-0.376;2023-03-21T12:55:32;6.60;;;3.10;;
79124;SDS011;68527;39.470;-0.376;2023-03-21T13:00:27;6.50;;;3.50;;
79124;SDS011;68527;39.470;-0.376;2023-03-21T13:05:58;4.80;;;2.70;;
79124;SDS011;68527;39.470;-0.376;2023-03-21T13:11:31;6.50;;;3.20;;
79124;SDS011;68527;39.470;-0.376;2023-03-21T13:14:00;7.50;;;2.90;;
79124;SDS011;68527;39.470;-0.376;2023-03-21T13:19:20;8.20;;;3.00;;
79124;SDS011;68527;39.470;-0.376;2023-03-21T13:26:57;6.10;;;3.10;;
79124;SDS011;68527;39.470;-0.376;2023-03-21T13:32:29;4.40;;;3.10;;
79124;SDS011;68527;39.470;-0.376;2023-03-21T13:35:22;5.00;;;3.00;;
79124;SDS011;68527;39.470;-0.376;2023-03-21T13:37:57;5.50;;;2.50;;
79124;SDS011;68527;39.470;-0.376;2023-03-21T13:40:28;5.60;;;3.10;;
79124;SDS011;68527;39.470;-0.376;2023-03-21T13:43:00;5.00;;;2.90;;
79124;SDS011;68527;39.470;-0.376;2023-03-21T13:45:51;5.10;;;2.60;;
79124;SDS011;68527;39.470;-0.376;2023-03-21T13:54:01;4.70;;;2.80;;
79124;SDS011;68527;39.470;-0.376;2023-03-21T13:56:28;5.20;;;2.50;;
79124;SDS011;68527;39.470;-0.376;2023-03-21T13:59:01;6.00;;;2.90;;
79124;SDS011;68527;39.470;-0.376;2023-03-21T14:01:38;8.70;;;2.90;;
79124;SDS011;68527;39.470;-0.376;2023-03-21T14:04:09;5.70;;;2.80;;
79124;SDS011;68527;39.470;-0.376;2023-03-21T14:06:38;5.00;;;2.60;;
79124;SDS011;68527;39.470;-0.376;2023-03-21T14:09:08;4.70;;;2.90;;
79124;SDS011;68527;39.470;-0.376;2023-03-21T14:11:39;7.00;;;2.90;;
79124;SDS011;68527;39.470;-0.376;2023-03-21T14:14:05;5.10;;;2.70;;
79124;SDS011;68527;39.470;-0.376;2023-03-21T14:16:31;4.50;;;3.00;;
79124;SDS011;68527;39.470;-0.376;2023-03-21T14:19:01;7.10;;;3.20;;
79124;SDS011;68527;39.470;-0.376;2023-03-21T14:24:04;6.00;;;3.10;;
79124;SDS011;68527;39.470;-0.376;2023-03-21T14:26:32;5.10;;;2.80;;
79124;SDS011;68527;39.470;-0.376;2023-03-21T14:29:00;6.70;;;3.10;;
79124;SDS011;68527;39.470;-0.376;2023-03-21T14:31:28;4.40;;;2.80;;
79124;SDS011;68527;39.470;-0.376;2023-03-21T14:33:55;5.40;;;2.60;;
79124;SDS011;68527;39.470;-0.376;2023-03-21T14:36:23;5.10;;;3.40;;
79124;SDS011;68527;39.470;-0.376;2023-03-21T14:41:27;4.60;;;2.80;;
79124;SDS011;68527;39.470;-0.376;2023-03-21T14:47:37;5.90;;;3.60;;
79124;SDS011;68527;39.470;-0.376;2023-03-21T14:50:05;4.60;;;3.00;;
79124;SDS011;68527;39.470;-0.376;2023-03-21T14:52:31;6.00;;;3.20;;
79124;SDS011;68527;39.470;-0.376;2023-03-21T14:54:58;8.20;;;3.30;;
79124;SDS011;68527;39.470;-0.376;2023-03-21T14:57:26;6.00;;;3.10;;
79124;SDS011;68527;39.470;-0.376;2023-03-21T14:59:55;7.10;;;3.30;;
79124;SDS011;68527;39.470;-0.376;2023-03-21T15:02:24;5.80;;;2.80;;
79124;SDS011;68527;39.470;-0.376;2023-03-21T15:04:52;4.80;;;3.00;;
79124;SDS011;68527;39.470;-0.376;2023-03-21T15:07:26;5.50;;;2.90;;
79124;SDS011;68527;39.470;-0.376;2023-03-21T15:09:58;7.20;;;3.00;;
79124;SDS011;68527;39.470;-0.376;2023-03-21T15:12:27;9.00;;;3.20;;
79124;SDS011;68527;39.470;-0.376;2023-03-21T15:14:53;6.90;;;3.20;;
79124;SDS011;68527;39.470;-0.376;2023-03-21T15:17:20;6.30;;;2.90;;
79124;SDS011;68527;39.470;-0.376;2023-03-21T15:19:46;4.90;;;2.80;;
79124;SDS011;68527;39.470;-0.376;2023-03-21T15:24:41;7.50;;;3.20;;
79124;SDS011;68527;39.470;-0.376;2023-03-21T15:27:13;7.00;;;3.10;;
79124;SDS011;68527;39.470;-0.376;2023-03-21T15:32:11;7.20;;;3.20;;
79124;SDS011;68527;39.470;-0.376;2023-03-21T15:34:39;6.70;;;2.90;;
79124;SDS011;68527;39.470;-0.376;2023-03-21T15:37:05;6.90;;;3.40;;
79124;SDS011;68527;39.470;-0.376;2023-03-21T15:39:32;6.10;;;3.10;;
79124;SDS011;68527;39.470;-0.376;2023-03-21T15:42:04;5.40;;;3.10;;
79124;SDS011;68527;39.470;-0.376;2023-03-21T15:44:32;6.50;;;3.50;;
79124;SDS011;68527;39.470;-0.376;2023-03-21T15:46:59;7.00;;;3.10;;
79124;SDS011;68527;39.470;-0.376;2023-03-21T15:49:26;5.10;;;3.20;;
79124;SDS011;68527;39.470;-0.376;2023-03-21T15:51:58;6.00;;;3.10;;
79124;SDS011;68527;39.470;-0.376;2023-03-21T15:54:31;8.00;;;3.30;;
79124;SDS011;68527;39.470;-0.376;2023-03-21T15:56:59;4.40;;;2.80;;
79124;SDS011;68527;39.470;-0.376;2023-03-21T15:59:34;5.90;;;3.00;;
79124;SDS011;68527;39.470;-0.376;2023-03-21T16:02:03;5.40;;;3.10;;
79124;SDS011;68527;39.470;-0.376;2023-03-21T16:04:29;7.20;;;3.30;;
79124;SDS011;68527;39.470;-0.376;2023-03-21T16:06:56;6.50;;;3.20;;
79124;SDS011;68527;39.470;-0.376;2023-03-21T16:09:24;8.20;;;3.20;;
79124;SDS011;68527;39.470;-0.376;2023-03-21T16:11:51;5.50;;;3.00;;
79124;SDS011;68527;39.470;-0.376;2023-03-21T16:14:21;8.00;;;3.70;;
79124;SDS011;68527;39.470;-0.376;2023-03-21T16:16:48;7.60;;;3.30;;
79124;SDS011;68527;39.470;-0.376;2023-03-21T16:19:15;6.20;;;3.10;;
79124;SDS011;68527;39.470;-0.376;2023-03-21T16:21:41;4.80;;;3.20;;
79124;SDS011;68527;39.470;-0.376;2023-03-21T16:24:07;6.60;;;3.20;;
79124;SDS011;68527;39.470;-0.376;2023-03-21T16:26:35;7.50;;;3.30;;
79124;SDS011;68527;39.470;-0.376;2023-03-21T16:29:02;7.00;;;2.90;;
79124;SDS011;68527;39.470;-0.376;2023-03-21T16:31:30;4.90;;;3.10;;
79124;SDS011;68527;39.470;-0.376;2023-03-21T16:33:57;4.70;;;3.00;;
79124;SDS011;68527;39.470;-0.376;2023-03-21T16:36:24;5.90;;;3.10;;
79124;SDS011;68527;39.470;-0.376;2023-03-21T16:38:52;7.00;;;3.30;;
79124;SDS011;68527;39.470;-0.376;2023-03-21T16:41:18;8.10;;;3.40;;
79124;SDS011;68527;39.470;-0.376;2023-03-21T16:43:44;4.80;;;2.60;;
79124;SDS011;68527;39.470;-0.376;2023-03-21T16:46:17;4.60;;;3.00;;
79124;SDS011;68527;39.470;-0.376;2023-03-21T16:48:45;5.50;;;2.90;;
79124;SDS011;68527;39.470;-0.376;2023-03-21T16:51:13;4.50;;;2.80;;
79124;SDS011;68527;39.470;-0.376;2023-03-21T16:53:40;6.80;;;3.20;;
79124;SDS011;68527;39.470;-0.376;2023-03-21T16:59:02;7.40;;;3.60;;
79124;SDS011;68527;39.470;-0.376;2023-03-21T17:01:28;7.00;;;3.10;;
79124;SDS011;68527;39.470;-0.376;2023-03-21T17:03:55;6.40;;;2.90;;
79124;SDS011;68527;39.470;-0.376;2023-03-21T17:06:25;9.40;;;3.50;;
79124;SDS011;68527;39.470;-0.376;2023-03-21T17:08:53;7.40;;;3.00;;
79124;SDS011;68527;39.470;-0.376;2023-03-21T17:11:20;7.60;;;3.20;;
79124;SDS011;68527;39.470;-0.376;2023-03-21T17:13:51;9.50;;;3.70;;
79124;SDS011;68527;39.470;-0.376;2023-03-21T17:16:22;12.10;;;4.30;;
79124;SDS011;68527;39.470;-0.376;2023-03-21T17:18:49;6.80;;;3.40;;
79124;SDS011;68527;39.470;-0.376;2023-03-21T17:23:47;5.80;;;3.40;;
79124;SDS011;68527;39.470;-0.376;2023-03-21T17:26:15;8.40;;;3.60;;
79124;SDS011;68527;39.470;-0.376;2023-03-21T17:28:43;7.20;;;3.80;;
79124;SDS011;68527;39.470;-0.376;2023-03-21T17:31:13;9.70;;;3.90;;
79124;SDS011;68527;39.470;-0.376;2023-03-21T17:33:41;7.80;;;3.70;;
79124;SDS011;68527;39.470;-0.376;2023-03-21T17:36:17;9.00;;;3.60;;
79124;SDS011;68527;39.470;-0.376;2023-03-21T17:38:45;6.10;;;3.70;;